Time;durP1;ratioP1;P1;durP2;ratioP2;P2;SDS_P1;SDS_P2;PMS_P1;PMS_P2;Temp;Humidity;BMP_temperature;BMP_pressure;BME280_temperature;BME280_humidity;BME280_pressure;Samples;Min_cycle;Max_cycle;Signal;HPM_P1;HPM_P2
2023/05/02 00:02:21;;;;;;;13.40;6.50;;;;;;;10.24;55.15;100621.85;104516;1271;97972;-79
2023/05/02 00:05:06;;;;;;;11.50;6.90;;;;;;;10.21;55.22;100619.16;104441;1271;98534;-77
2023/05/02 00:07:53;;;;;;;11.70;6.50;;;;;;;10.19;55.31;100616.99;104518;1273;101414;-78
2023/05/02 00:10:38;;;;;;;11.00;6.10;;;;;;;10.17;55.44;100613.88;104496;1273;100266;-78
2023/05/02 00:13:24;;;;;;;12.70;6.80;;;;;;;10.16;55.55;100616.19;104536;1271;98746;-79
2023/05/02 00:16:10;;;;;;;11.50;6.40;;;;;;;10.15;55.68;100611.34;104501;1273;97969;-78
2023/05/02 00:18:55;;;;;;;17.00;6.40;;;;;;;10.13;55.86;100611.52;104442;1270;98535;-77
2023/05/02 00:21:41;;;;;;;10.30;6.70;;;;;;;10.10;56.05;100609.00;104490;1272;102632;-77
2023/05/02 00:24:26;;;;;;;16.20;6.80;;;;;;;10.07;56.17;100609.01;104523;1271;100497;-78
2023/05/02 00:27:13;;;;;;;11.00;6.00;;;;;;;10.04;56.32;100607.98;104489;1270;98100;-79
2023/05/02 00:29:59;;;;;;;10.70;6.20;;;;;;;10.02;56.52;100603.51;104494;1273;97980;-78
2023/05/02 00:32:44;;;;;;;11.40;6.20;;;;;;;10.01;56.83;100597.80;104526;1281;97885;-78
2023/05/02 00:35:32;;;;;;;12.80;6.30;;;;;;;10.00;56.77;100596.51;104490;1281;101380;-78
2023/05/02 00:38:17;;;;;;;8.70;5.30;;;;;;;9.99;56.95;100595.68;104543;1272;99201;-79
2023/05/02 00:41:04;;;;;;;14.10;6.10;;;;;;;9.98;57.05;100593.48;104362;1270;99102;-77
2023/05/02 00:43:49;;;;;;;12.40;6.60;;;;;;;9.97;57.34;100594.45;104492;1268;98348;-77
2023/05/02 00:46:35;;;;;;;12.50;7.40;;;;;;;9.96;57.20;100592.86;104506;1273;99356;-76
2023/05/02 00:49:21;;;;;;;11.40;5.60;;;;;;;9.94;57.29;100592.71;104466;1275;101356;-77
2023/05/02 00:52:07;;;;;;;12.40;6.60;;;;;;;9.92;57.54;100590.30;104482;1270;100265;-77
2023/05/02 00:54:53;;;;;;;9.70;6.70;;;;;;;9.91;57.73;100587.56;104432;1268;98609;-78
2023/05/02 00:57:38;;;;;;;9.00;5.90;;;;;;;9.91;57.73;100587.20;104444;1273;98478;-79
2023/05/02 01:00:43;;;;;;;11.10;6.60;;;;;;;9.91;57.77;100584.93;104474;1270;100860;-77
2023/05/02 01:03:45;;;;;;;11.80;5.90;;;;;;;9.89;57.97;100582.14;104558;1269;102626;-77
2023/05/02 01:06:58;;;;;;;9.30;5.40;;;;;;;9.87;58.23;100579.11;104596;1271;99091;-77
2023/05/02 01:09:59;;;;;;;8.10;5.60;;;;;;;9.85;58.40;100579.35;104499;1267;99259;-78
2023/05/02 01:13:06;;;;;;;10.60;6.00;;;;;;;9.84;58.47;100578.39;104490;1273;97974;-77
2023/05/02 01:15:52;;;;;;;11.30;6.10;;;;;;;9.84;58.47;100581.10;104453;1274;98427;-79
2023/05/02 01:18:41;;;;;;;10.80;5.40;;;;;;;9.84;58.45;100580.23;104480;1273;101406;-78
2023/05/02 01:21:27;;;;;;;11.00;5.50;;;;;;;9.83;58.54;100579.62;104568;1269;99348;-77
2023/05/02 01:24:26;;;;;;;11.30;5.90;;;;;;;9.82;58.77;100578.12;104503;1272;98572;-76
2023/05/02 01:27:38;;;;;;;10.00;5.90;;;;;;;9.80;58.89;100579.41;104566;1273;98040;-79
2023/05/02 01:30:27;;;;;;;15.70;5.40;;;;;;;9.77;58.99;100578.39;104502;1273;99317;-78
2023/05/02 01:33:16;;;;;;;11.70;5.80;;;;;;;9.74;59.00;100577.42;104553;1271;102708;-78
2023/05/02 01:36:03;;;;;;;12.20;5.40;;;;;;;9.72;59.23;100572.89;104574;1270;99206;-78
2023/05/02 01:38:50;;;;;;;11.10;5.40;;;;;;;9.69;59.46;100567.05;104517;1278;97994;-78
2023/05/02 01:41:37;;;;;;;14.20;6.30;;;;;;;9.64;59.62;100564.42;104514;1267;99196;-77
2023/05/02 01:44:26;;;;;;;9.60;6.30;;;;;;;9.60;59.66;100561.23;104539;1273;98581;-79
2023/05/02 01:47:14;;;;;;;12.40;7.00;;;;;;;9.56;60.05;100553.80;104694;1271;101367;-81
2023/05/02 01:50:02;;;;;;;15.40;7.30;;;;;;;9.53;60.18;100552.02;104706;1272;99890;-78
2023/05/02 01:52:51;;;;;;;10.80;6.30;;;;;;;9.50;60.40;100547.23;104471;1267;98540;-78
2023/05/02 01:55:43;;;;;;;15.90;8.60;;;;;;;9.48;60.69;100544.45;104519;1280;99215;-78
2023/05/02 01:58:34;;;;;;;16.30;9.10;;;;;;;9.48;60.93;100537.73;104567;1271;98461;-77
2023/05/02 02:01:23;;;;;;;15.10;8.20;;;;;;;9.47;61.02;100537.41;104437;1273;102046;-79
2023/05/02 02:04:12;;;;;;;13.20;8.00;;;;;;;9.47;60.90;100531.20;104685;1270;99146;-78
2023/05/02 02:07:02;;;;;;;13.30;7.20;;;;;;;9.47;60.91;100527.79;104512;1272;98961;-77
2023/05/02 02:09:48;;;;;;;12.70;6.70;;;;;;;9.48;60.92;100527.17;104571;1270;97967;-77
2023/05/02 02:12:50;;;;;;;13.40;7.40;;;;;;;9.49;60.89;100522.45;104497;1268;98960;-77
2023/05/02 02:15:38;;;;;;;14.20;6.60;;;;;;;9.49;61.05;100522.94;104555;1273;101359;-76
2023/05/02 02:18:26;;;;;;;12.50;6.70;;;;;;;9.48;61.26;100518.57;104537;1270;99077;-78
2023/05/02 02:21:17;;;;;;;21.30;7.30;;;;;;;9.47;61.22;100517.09;104477;1267;98216;-78
2023/05/02 02:24:05;;;;;;;12.10;6.80;;;;;;;9.49;61.19;100517.64;104509;1267;99056;-78
2023/05/02 02:26:50;;;;;;;16.40;7.20;;;;;;;9.50;61.24;100516.39;104535;1267;98490;-77
2023/05/02 02:29:36;;;;;;;10.10;6.20;;;;;;;9.51;61.30;100513.40;104542;1270;102605;-78
2023/05/02 02:32:22;;;;;;;11.70;6.30;;;;;;;9.51;61.35;100512.70;104509;1274;99092;-78
2023/05/02 02:35:08;;;;;;;10.90;6.10;;;;;;;9.51;61.27;100512.20;104488;1270;99241;-77
2023/05/02 02:38:09;;;;;;;12.30;6.30;;;;;;;9.51;61.51;100512.03;104566;1271;98035;-79
2023/05/02 02:41:12;;;;;;;10.10;5.80;;;;;;;9.51;61.49;100513.30;104469;1267;99237;-78
2023/05/02 02:44:16;;;;;;;9.40;5.40;;;;;;;9.51;61.42;100516.48;104561;1267;101388;-76
2023/05/02 02:47:10;;;;;;;10.10;5.70;;;;;;;9.50;61.54;100515.85;104609;1270;100360;-76
2023/05/02 02:50:30;;;;;;;10.00;5.80;;;;;;;9.50;61.58;100516.72;104494;1271;98873;-76
2023/05/02 02:53:25;;;;;;;10.10;6.60;;;;;;;9.50;61.69;100518.48;104493;1271;98090;-77
2023/05/02 02:56:19;;;;;;;14.70;6.80;;;;;;;9.51;61.83;100515.36;104473;1267;99664;-77
2023/05/02 02:59:28;;;;;;;15.50;6.50;;;;;;;9.52;62.07;100513.36;104676;1267;102880;-77
2023/05/02 03:02:17;;;;;;;17.30;7.80;;;;;;;9.53;61.93;100510.91;104488;1271;99114;-78
2023/05/02 03:05:04;;;;;;;17.60;8.00;;;;;;;9.53;62.15;100511.55;104507;1271;97978;-78
2023/05/02 03:07:51;;;;;;;15.70;8.90;;;;;;;9.53;62.16;100508.21;104475;1272;98003;-78
2023/05/02 03:10:37;;;;;;;20.40;9.60;;;;;;;9.52;62.38;100503.47;104503;1267;97938;-78
2023/05/02 03:13:22;;;;;;;18.20;9.00;;;;;;;9.51;62.29;100506.05;104581;1270;101340;-77
2023/05/02 03:16:35;;;;;;;14.10;8.00;;;;;;;9.51;62.40;100510.02;104412;1273;100566;-78
2023/05/02 03:19:22;;;;;;;12.20;7.20;;;;;;;9.50;62.60;100510.49;104462;1267;97894;-77
2023/05/02 03:22:08;;;;;;;12.40;6.40;;;;;;;9.50;62.83;100512.48;104502;1268;99247;-78
2023/05/02 03:24:54;;;;;;;11.40;6.70;;;;;;;9.50;62.79;100509.85;104532;1271;98511;-77
2023/05/02 03:27:40;;;;;;;13.60;7.30;;;;;;;9.50;62.97;100505.72;104583;1271;101363;-79
2023/05/02 03:30:27;;;;;;;11.00;6.20;;;;;;;9.50;63.06;100508.36;104865;1270;99104;-78
2023/05/02 03:33:13;;;;;;;13.40;6.60;;;;;;;9.51;63.06;100508.50;104494;1272;107073;-78
2023/05/02 03:36:01;;;;;;;14.80;6.80;;;;;;;9.51;63.04;100506.52;104546;1270;98027;-77
2023/05/02 03:38:47;;;;;;;12.20;6.50;;;;;;;9.52;63.24;100507.98;104433;1267;115563;-77
2023/05/02 03:41:33;;;;;;;12.40;6.40;;;;;;;9.52;63.23;100503.55;104456;1267;101394;-79
2023/05/02 03:44:21;;;;;;;11.10;5.90;;;;;;;9.52;63.19;100505.80;104494;1267;99093;-77
2023/05/02 03:47:06;;;;;;;12.90;5.90;;;;;;;9.53;63.50;100504.43;104472;1270;98976;-77
2023/05/02 03:49:54;;;;;;;9.20;5.60;;;;;;;9.55;63.38;100503.35;104487;1273;97988;-78
2023/05/02 03:52:40;;;;;;;10.90;5.80;;;;;;;9.57;63.38;100504.13;104501;1271;98512;-78
2023/05/02 03:55:27;;;;;;;10.70;6.20;;;;;;;9.59;63.62;100505.91;104538;1270;102011;-77
2023/05/02 03:58:14;;;;;;;13.10;5.80;;;;;;;9.60;63.57;100508.39;104421;1274;100849;-78
2023/05/02 04:00:59;;;;;;;9.30;5.70;;;;;;;9.62;63.84;100509.54;104460;1272;99285;-79
2023/05/02 04:03:46;;;;;;;12.30;5.60;;;;;;;9.65;64.07;100510.86;104453;1267;98078;-78
2023/05/02 04:06:35;;;;;;;11.60;5.50;;;;;;;9.68;64.14;100512.60;104554;1271;98498;-78
2023/05/02 04:09:24;;;;;;;11.00;6.40;;;;;;;9.70;64.24;100516.42;104498;1271;101366;-78
2023/05/02 04:12:21;;;;;;;15.70;7.30;;;;;;;9.74;64.38;100515.95;104418;1271;100401;-78
2023/05/02 04:15:10;;;;;;;10.00;6.20;;;;;;;9.78;64.52;100514.60;104503;1268;97926;-77
2023/05/02 04:17:56;;;;;;;14.70;6.80;;;;;;;9.81;64.57;100512.83;104509;1271;97960;-78
2023/05/02 04:20:44;;;;;;;12.00;6.90;;;;;;;9.84;64.75;100513.19;104441;1273;97952;-79
2023/05/02 04:23:32;;;;;;;9.40;6.10;;;;;;;9.87;64.68;100515.97;104510;1268;101371;-77
2023/05/02 04:26:20;;;;;;;11.10;5.90;;;;;;;9.91;64.90;100515.30;104527;1267;99527;-78
2023/05/02 04:29:12;;;;;;;12.70;6.00;;;;;;;9.95;64.95;100513.73;104422;1270;97942;-78
2023/05/02 04:31:58;;;;;;;10.30;5.80;;;;;;;9.99;65.06;100512.33;104417;1272;97965;-77
2023/05/02 04:34:46;;;;;;;10.50;5.80;;;;;;;10.04;64.90;100512.46;104770;1271;98436;-79
2023/05/02 04:37:32;;;;;;;11.00;5.80;;;;;;;10.10;65.06;100513.98;104837;1270;101379;-79
2023/05/02 04:40:20;;;;;;;10.80;5.90;;;;;;;10.15;64.98;100510.70;104618;1267;100466;-78
2023/05/02 04:43:09;;;;;;;10.10;6.20;;;;;;;10.21;65.14;100510.28;104487;1270;98438;-78
2023/05/02 04:46:08;;;;;;;14.20;5.80;;;;;;;10.28;65.39;100514.23;104541;1272;98002;-77
2023/05/02 04:48:57;;;;;;;11.20;6.20;;;;;;;10.36;65.69;100518.02;104617;1267;99858;-79
2023/05/02 04:51:43;;;;;;;14.40;5.60;;;;;;;10.44;66.25;100520.58;104688;1271;102172;-79
2023/05/02 04:54:31;;;;;;;8.50;6.10;;;;;;;10.52;66.46;100517.30;104765;1267;100012;-79
2023/05/02 04:57:17;;;;;;;12.60;6.10;;;;;;;10.59;66.64;100512.11;104700;1270;98629;-80
2023/05/02 05:00:07;;;;;;;13.10;6.30;;;;;;;10.67;66.61;100516.81;104615;1267;98201;-78
2023/05/02 05:02:53;;;;;;;12.60;6.40;;;;;;;10.74;66.53;100517.63;104644;1268;99667;-78
2023/05/02 05:05:39;;;;;;;12.80;6.60;;;;;;;10.83;66.58;100513.33;104703;1274;109977;-78
2023/05/02 05:08:27;;;;;;;14.10;8.10;;;;;;;10.91;66.45;100515.13;104523;1271;99148;-78
2023/05/02 05:11:14;;;;;;;12.00;6.70;;;;;;;10.99;66.43;100513.44;104624;1269;97984;-78
2023/05/02 05:14:02;;;;;;;13.30;6.50;;;;;;;11.08;66.86;100504.91;104554;1271;97972;-77
2023/05/02 05:16:48;;;;;;;12.80;6.30;;;;;;;11.20;66.94;100503.70;104602;1270;98030;-78
2023/05/02 05:19:35;;;;;;;10.50;6.40;;;;;;;11.35;67.28;100501.73;104617;1270;101330;-77
2023/05/02 05:22:21;;;;;;;13.50;6.90;;;;;;;11.52;67.40;100500.63;104473;1275;99315;-78
2023/05/02 05:25:10;;;;;;;10.20;6.50;;;;;;;11.66;67.34;100498.35;104518;1269;97966;-78
2023/05/02 05:27:56;;;;;;;10.60;6.80;;;;;;;11.77;66.81;100502.14;104450;1273;99293;-77
2023/05/02 05:30:42;;;;;;;11.60;7.00;;;;;;;11.87;66.46;100502.33;104518;1268;98605;-79
2023/05/02 05:33:30;;;;;;;13.40;7.60;;;;;;;11.95;66.13;100501.89;104537;1271;102111;-79
2023/05/02 05:36:17;;;;;;;13.30;7.50;;;;;;;12.05;66.39;100504.74;104683;1269;100007;-79
2023/05/02 05:39:03;;;;;;;13.80;8.20;;;;;;;12.17;66.16;100508.61;104788;1269;97977;-78
2023/05/02 05:41:51;;;;;;;13.00;7.80;;;;;;;12.29;65.89;100514.30;104758;1268;97892;-79
2023/05/02 05:44:37;;;;;;;15.70;7.80;;;;;;;12.38;66.02;100515.52;104724;1271;98514;-78
2023/05/02 05:47:23;;;;;;;17.20;9.80;;;;;;;12.47;66.17;100513.13;104798;1273;101447;-78
2023/05/02 05:50:09;;;;;;;12.20;7.90;;;;;;;12.56;65.99;100512.13;104763;1268;107883;-79
2023/05/02 05:52:56;;;;;;;14.30;6.90;;;;;;;12.63;65.50;100514.46;104694;1273;99022;-77
2023/05/02 05:55:41;;;;;;;11.90;6.60;;;;;;;12.69;65.79;100517.79;104445;1268;97978;-79
2023/05/02 05:58:27;;;;;;;11.20;5.80;;;;;;;12.74;65.97;100519.92;104476;1271;99161;-77
2023/05/02 06:01:14;;;;;;;12.50;5.70;;;;;;;12.79;65.69;100521.02;104612;1268;101357;-78
2023/05/02 06:04:01;;;;;;;10.50;5.30;;;;;;;12.84;65.57;100524.48;104715;1271;100126;-77
2023/05/02 06:06:46;;;;;;;12.50;6.10;;;;;;;12.88;65.41;100526.73;104461;1271;98962;-77
2023/05/02 06:09:32;;;;;;;9.70;5.40;;;;;;;12.93;65.86;100524.30;104570;1271;98054;-78
2023/05/02 06:12:18;;;;;;;13.80;5.80;;;;;;;12.98;65.68;100520.96;104557;1267;99257;-79
2023/05/02 06:15:04;;;;;;;13.10;5.60;;;;;;;13.03;65.59;100519.08;104569;1269;102025;-80
2023/05/02 06:17:51;;;;;;;14.50;5.80;;;;;;;13.08;65.47;100520.85;104673;1271;99697;-77
2023/05/02 06:20:36;;;;;;;10.80;6.00;;;;;;;13.15;65.27;100519.79;104530;1268;98536;-78
2023/05/02 06:23:22;;;;;;;13.80;5.50;;;;;;;13.24;65.34;100521.65;104624;1267;97979;-78
2023/05/02 06:26:08;;;;;;;11.70;5.80;;;;;;;13.32;65.12;100520.33;104572;1271;98506;-77
2023/05/02 06:28:54;;;;;;;10.40;5.90;;;;;;;13.46;65.01;100518.64;104594;1271;102563;-77
2023/05/02 06:31:40;;;;;;;9.50;5.50;;;;;;;13.64;64.78;100513.62;104687;1268;100147;-77
2023/05/02 06:34:25;;;;;;;11.90;6.60;;;;;;;13.81;64.55;100515.50;104615;1269;98568;-78
2023/05/02 06:37:11;;;;;;;12.10;5.90;;;;;;;13.97;64.19;100515.48;104620;1273;98003;-78
2023/05/02 06:39:56;;;;;;;7.60;5.10;;;;;;;14.12;64.39;100514.27;104697;1271;97962;-77
2023/05/02 06:42:42;;;;;;;9.30;5.20;;;;;;;14.24;63.91;100516.48;104717;1269;102623;-78
2023/05/02 06:45:27;;;;;;;11.10;5.90;;;;;;;14.34;64.09;100512.52;104630;1268;99168;-79
2023/05/02 06:48:14;;;;;;;10.50;5.90;;;;;;;14.46;63.77;100514.98;105013;1271;99429;-79
2023/05/02 06:51:00;;;;;;;9.40;5.30;;;;;;;14.59;63.67;100521.63;105085;1269;97985;-80
2023/05/02 06:53:45;;;;;;;10.00;5.70;;;;;;;14.70;63.45;100520.20;105190;1269;98518;-78
2023/05/02 06:56:31;;;;;;;11.10;5.30;;;;;;;14.77;63.06;100521.17;105143;1268;102640;-79
2023/05/02 06:59:17;;;;;;;9.60;5.10;;;;;;;14.83;63.08;100524.58;105055;1271;99079;-80
2023/05/02 07:02:02;;;;;;;9.30;5.30;;;;;;;14.91;63.28;100530.42;104818;1270;99516;-78
2023/05/02 07:04:48;;;;;;;9.30;5.80;;;;;;;14.99;62.77;100529.87;104774;1269;97998;-80
2023/05/02 07:07:33;;;;;;;11.60;5.20;;;;;;;15.06;62.78;100530.95;104863;1268;99631;-79
2023/05/02 07:10:19;;;;;;;13.30;5.40;;;;;;;15.15;62.18;100532.06;104866;1273;102020;-79
2023/05/02 07:13:05;;;;;;;11.30;5.90;;;;;;;15.29;61.95;100534.06;104891;1269;99069;-80
2023/05/02 07:15:51;;;;;;;8.50;4.70;;;;;;;15.48;61.95;100538.80;104776;1267;98003;-79
2023/05/02 07:18:37;;;;;;;10.90;5.50;;;;;;;15.67;61.84;100534.63;104821;1268;97986;-79
2023/05/02 07:21:22;;;;;;;11.70;5.30;;;;;;;15.85;62.04;100538.66;104821;1270;97975;-79
2023/05/02 07:24:08;;;;;;;9.80;5.70;;;;;;;15.99;61.03;100544.30;104811;1267;101328;-80
2023/05/02 07:26:53;;;;;;;9.10;5.20;;;;;;;16.08;60.34;100549.02;104830;1270;99148;-79
2023/05/02 07:29:41;;;;;;;12.30;5.20;;;;;;;16.17;60.36;100550.55;104757;1267;98787;-78
2023/05/02 07:32:26;;;;;;;7.60;4.90;;;;;;;16.29;59.86;100556.20;104610;1271;97986;-79
2023/05/02 07:35:12;;;;;;;10.20;6.00;;;;;;;16.37;59.33;100554.98;104679;1270;98542;-78
2023/05/02 07:37:58;;;;;;;16.20;5.50;;;;;;;16.46;59.40;100555.17;104768;1267;101390;-80
2023/05/02 07:40:45;;;;;;;8.90;5.60;;;;;;;16.56;59.52;100558.20;104874;1267;100756;-79
2023/05/02 07:43:31;;;;;;;8.00;5.50;;;;;;;16.66;59.36;100558.67;104814;1270;98996;-79
2023/05/02 07:46:16;;;;;;;8.30;5.50;;;;;;;16.75;59.48;100551.52;104823;1267;97986;-80
2023/05/02 07:49:02;;;;;;;8.40;5.30;;;;;;;16.86;59.75;100552.37;104808;1267;97907;-78
2023/05/02 07:51:47;;;;;;;10.90;5.50;;;;;;;17.00;59.67;100551.23;104865;1267;101374;-79
2023/05/02 07:54:33;;;;;;;9.00;5.60;;;;;;;17.12;59.17;100546.58;104809;1268;100365;-79
2023/05/02 07:57:18;;;;;;;8.10;4.80;;;;;;;17.24;58.96;100554.41;104867;1270;98197;-79
2023/05/02 08:00:08;;;;;;;9.20;5.80;;;;;;;17.34;58.54;100557.43;104997;1271;99144;-81
2023/05/02 08:02:58;;;;;;;9.20;7.50;;;;;;;17.40;57.86;100556.58;104946;1270;98594;-79
2023/05/02 08:05:44;;;;;;;16.80;13.50;;;;;;;17.47;57.96;100559.01;104859;1271;101394;-79
2023/05/02 08:08:30;;;;;;;11.50;7.10;;;;;;;17.54;58.13;100559.83;104846;1267;100389;-79
2023/05/02 08:11:15;;;;;;;10.80;5.90;;;;;;;17.64;57.68;100564.02;104795;1271;98877;-79
2023/05/02 08:14:01;;;;;;;9.10;5.20;;;;;;;17.72;57.80;100562.59;104785;1271;99158;-79
2023/05/02 08:16:47;;;;;;;15.30;5.90;;;;;;;17.78;57.32;100561.62;104785;1267;97975;-79
2023/05/02 08:19:32;;;;;;;11.70;6.10;;;;;;;17.86;57.54;100562.89;104835;1267;101414;-78
2023/05/02 08:22:18;;;;;;;9.20;5.70;;;;;;;17.97;57.77;100567.00;104762;1267;99094;-80
2023/05/02 08:25:04;;;;;;;8.70;5.50;;;;;;;18.06;57.27;100569.21;104845;1268;98087;-79
2023/05/02 08:27:49;;;;;;;11.00;5.40;;;;;;;18.14;57.77;100567.34;104787;1271;97986;-79
2023/05/02 08:30:35;;;;;;;10.10;5.30;;;;;;;18.20;57.62;100571.27;104911;1269;98440;-79
2023/05/02 08:33:20;;;;;;;11.90;5.90;;;;;;;18.28;57.60;100577.14;104745;1268;101811;-79
2023/05/02 08:36:14;;;;;;;7.30;5.80;;;;;;;18.33;57.26;100577.01;104980;1268;99086;-80
2023/05/02 08:38:59;;;;;;;9.90;6.10;;;;;;;18.34;57.00;100580.70;104959;1268;97956;-79
2023/05/02 08:41:45;;;;;;;7.40;5.60;;;;;;;18.35;56.96;100586.35;104841;1273;97924;-80
2023/05/02 08:44:31;;;;;;;8.30;5.50;;;;;;;18.37;57.06;100589.19;104629;1267;98456;-79
2023/05/02 08:47:18;;;;;;;9.80;5.30;;;;;;;18.39;57.14;100593.33;104577;1268;102099;-78
2023/05/02 08:50:05;;;;;;;10.70;6.40;;;;;;;18.36;57.10;100592.95;104526;1267;100461;-78
2023/05/02 08:52:51;;;;;;;10.40;5.60;;;;;;;18.36;57.43;100600.71;104908;1269;98953;-80
2023/05/02 08:55:39;;;;;;;10.00;6.70;;;;;;;18.35;57.30;100601.66;105001;1268;97991;-81
2023/05/02 08:58:24;;;;;;;9.90;5.60;;;;;;;18.32;57.24;100603.33;104944;1268;98474;-81
2023/05/02 09:01:21;;;;;;;8.00;6.00;;;;;;;18.31;57.29;100608.36;104787;1269;102089;-78
2023/05/02 09:04:06;;;;;;;11.70;6.10;;;;;;;18.31;57.28;100614.70;104707;1267;100581;-79
2023/05/02 09:06:51;;;;;;;9.10;5.70;;;;;;;18.32;57.30;100616.07;105275;1267;97969;-80
2023/05/02 09:09:36;;;;;;;9.60;5.90;;;;;;;18.33;57.60;100625.23;104791;1270;98077;-79
2023/05/02 09:12:26;;;;;;;10.40;6.60;;;;;;;18.33;57.30;100631.50;104806;1269;99120;-80
2023/05/02 09:15:14;;;;;;;9.40;7.10;;;;;;;18.29;57.21;100637.70;104859;1268;102101;-78
2023/05/02 09:18:00;;;;;;;9.50;6.40;;;;;;;18.27;57.60;100641.94;104823;1267;99162;-79
2023/05/02 09:20:45;;;;;;;8.90;6.50;;;;;;;18.23;57.19;100648.77;104781;1271;98524;-78
2023/05/02 09:23:38;;;;;;;8.60;6.70;;;;;;;18.17;56.96;100655.34;105298;1268;97944;-78
2023/05/02 09:26:30;;;;;;;12.10;6.40;;;;;;;18.11;57.27;100659.81;104914;1270;100887;-79
2023/05/02 09:29:18;;;;;;;8.80;7.00;;;;;;;18.10;57.32;100664.23;104683;1273;103568;-80
2023/05/02 09:32:05;;;;;;;11.00;7.60;;;;;;;18.03;57.23;100668.41;104762;1271;100002;-79
2023/05/02 09:35:05;;;;;;;10.80;7.50;;;;;;;17.99;57.48;100674.27;104754;1267;98750;-78
2023/05/02 09:37:57;;;;;;;11.00;7.70;;;;;;;18.02;58.10;100675.70;104841;1270;97972;-80
2023/05/02 09:40:55;;;;;;;13.80;7.40;;;;;;;18.03;58.13;100683.84;104742;1271;99965;-79
2023/05/02 09:43:41;;;;;;;13.90;8.40;;;;;;;18.02;58.07;100688.88;104866;1270;101573;-80
2023/05/02 09:46:39;;;;;;;13.60;9.00;;;;;;;18.04;58.24;100691.89;104796;1268;109232;-80
2023/05/02 09:49:43;;;;;;;9.80;8.00;;;;;;;18.02;57.93;100694.18;104805;1267;99079;-80
2023/05/02 09:52:29;;;;;;;16.40;8.10;;;;;;;17.95;58.22;100702.50;104726;1272;97971;-79
2023/05/02 09:55:20;;;;;;;12.20;8.20;;;;;;;17.91;58.59;100703.81;104825;1268;99292;-80
2023/05/02 09:58:06;;;;;;;12.50;7.90;;;;;;;17.93;59.07;100708.79;104878;1268;101364;-80
2023/05/02 10:00:51;;;;;;;12.60;8.00;;;;;;;17.94;59.20;100712.89;104859;1267;99113;-79
2023/05/02 10:03:40;;;;;;;16.90;8.60;;;;;;;17.96;59.24;100721.84;104751;1269;98791;-78
2023/05/02 10:06:27;;;;;;;13.80;8.10;;;;;;;17.90;58.99;100721.67;104762;1271;97911;-78
2023/05/02 10:09:14;;;;;;;17.10;9.10;;;;;;;17.81;58.92;100723.89;104847;1268;97925;-80
2023/05/02 10:12:06;;;;;;;14.70;9.10;;;;;;;17.72;58.73;100730.69;104802;1267;101361;-80
2023/05/02 10:14:59;;;;;;;14.80;9.40;;;;;;;17.63;59.17;100737.64;105477;1270;99086;-79
2023/05/02 10:17:49;;;;;;;15.80;9.60;;;;;;;17.49;59.50;100738.33;104805;1271;99036;-80
2023/05/02 10:20:39;;;;;;;13.20;10.10;;;;;;;17.38;60.03;100742.33;104801;1268;97980;-80
2023/05/02 10:23:27;;;;;;;14.50;10.40;;;;;;;17.30;61.20;100745.84;104801;1268;98006;-79
2023/05/02 10:26:14;;;;;;;15.60;11.10;;;;;;;17.22;61.97;100747.98;104784;1267;102799;-79
2023/05/02 10:29:00;;;;;;;15.50;10.50;;;;;;;17.13;62.41;100753.23;104753;1267;99212;-80
2023/05/02 10:31:48;;;;;;;15.00;10.50;;;;;;;17.09;62.94;100752.13;104627;1268;98835;-80
2023/05/02 10:34:34;;;;;;;17.80;12.40;;;;;;;17.09;63.71;100756.79;104899;1269;98048;-80
2023/05/02 10:37:21;;;;;;;18.70;11.90;;;;;;;17.12;64.34;100760.09;104736;1268;98580;-78
2023/05/02 10:40:11;;;;;;;19.70;10.80;;;;;;;17.17;63.99;100758.98;104766;1271;102234;-81
2023/05/02 10:42:56;;;;;;;13.90;10.50;;;;;;;17.19;63.25;100757.88;104815;1268;100359;-80
2023/05/02 10:45:42;;;;;;;16.60;10.90;;;;;;;17.20;63.23;100760.58;104764;1280;97998;-80
2023/05/02 10:48:28;;;;;;;17.60;10.20;;;;;;;17.23;63.14;100768.15;104727;1271;98045;-79
2023/05/02 10:51:27;;;;;;;14.20;10.80;;;;;;;17.23;62.64;100772.16;104818;1268;99653;-78
2023/05/02 10:54:15;;;;;;;20.20;10.20;;;;;;;17.25;62.38;100771.14;104789;1271;101404;-80
2023/05/02 10:57:04;;;;;;;14.60;10.20;;;;;;;17.32;62.49;100772.64;104802;1271;99093;-80
2023/05/02 10:59:49;;;;;;;16.90;9.10;;;;;;;17.34;62.25;100776.90;104750;1269;99333;-79
2023/05/02 11:02:46;;;;;;;14.10;9.70;;;;;;;17.31;61.56;100780.73;104779;1268;97978;-79
2023/05/02 11:06:05;;;;;;;14.40;10.80;;;;;;;17.22;61.31;100785.11;104809;1268;97999;-80
2023/05/02 11:08:51;;;;;;;17.50;10.50;;;;;;;17.12;61.06;100787.14;104718;1268;102661;-81
2023/05/02 11:11:41;;;;;;;19.80;10.30;;;;;;;17.06;60.84;100790.84;104739;1273;99142;-79
2023/05/02 11:14:33;;;;;;;14.50;11.60;;;;;;;17.01;60.85;100792.85;104763;1268;98691;-78
2023/05/02 11:17:20;;;;;;;14.40;11.00;;;;;;;16.96;61.18;100796.89;104739;1268;97907;-79
2023/05/02 11:20:06;;;;;;;11.80;9.50;;;;;;;17.00;61.68;100800.31;104754;1269;97901;-80
2023/05/02 11:22:53;;;;;;;12.10;9.00;;;;;;;17.07;61.78;100804.48;104820;1268;102622;-79
2023/05/02 11:25:42;;;;;;;15.50;9.70;;;;;;;17.15;61.62;100813.27;104770;1268;99106;-80
2023/05/02 11:28:41;;;;;;;12.40;8.80;;;;;;;17.20;60.73;100816.02;104675;1271;99012;-78
2023/05/02 11:31:27;;;;;;;13.90;8.80;;;;;;;17.24;60.53;100815.92;104627;1271;98564;-79
2023/05/02 11:34:13;;;;;;;9.60;7.10;;;;;;;17.34;60.92;100819.38;104698;1271;98428;-78
2023/05/02 11:36:59;;;;;;;10.90;7.00;;;;;;;17.38;59.90;100820.32;104758;1268;101381;-79
2023/05/02 11:39:50;;;;;;;9.60;6.30;;;;;;;17.42;58.99;100825.13;104812;1271;99292;-80
2023/05/02 11:42:35;;;;;;;8.80;6.30;;;;;;;17.49;58.95;100824.45;104660;1269;98531;-80
2023/05/02 11:45:22;;;;;;;7.40;6.10;;;;;;;17.52;58.12;100828.13;105291;1271;97983;-79
2023/05/02 11:48:10;;;;;;;12.70;7.60;;;;;;;17.49;57.73;100831.87;104644;1271;97988;-79
2023/05/02 11:51:00;;;;;;;7.90;6.00;;;;;;;17.45;57.40;100836.81;104465;1271;102623;-77
2023/05/02 11:53:46;;;;;;;10.20;6.90;;;;;;;17.43;57.01;100839.84;104456;1271;99074;-78
2023/05/02 11:56:32;;;;;;;8.00;6.20;;;;;;;17.39;56.58;100843.38;104673;1271;98055;-78
2023/05/02 11:59:17;;;;;;;10.90;5.70;;;;;;;17.38;56.60;100845.94;104706;1267;97980;-79
2023/05/02 12:02:03;;;;;;;10.60;5.90;;;;;;;17.39;56.12;100849.55;104763;1271;98500;-79
2023/05/02 12:04:48;;;;;;;7.90;6.30;;;;;;;17.40;56.18;100853.79;104808;1271;101350;-81
2023/05/02 12:07:36;;;;;;;8.50;6.30;;;;;;;17.41;57.03;100858.23;104794;1271;99147;-79
2023/05/02 12:10:22;;;;;;;11.90;6.50;;;;;;;17.44;56.78;100857.54;104775;1268;99921;-79
2023/05/02 12:13:07;;;;;;;11.20;6.70;;;;;;;17.47;56.61;100857.25;104737;1271;98054;-79
2023/05/02 12:15:54;;;;;;;10.70;7.10;;;;;;;17.53;56.87;100853.63;104724;1271;98463;-80
2023/05/02 12:18:40;;;;;;;10.10;6.80;;;;;;;17.60;56.11;100853.09;104969;1271;101452;-79
2023/05/02 12:21:28;;;;;;;8.90;7.30;;;;;;;17.66;56.00;100851.63;104699;1270;100503;-77
2023/05/02 12:24:14;;;;;;;10.70;8.80;;;;;;;17.73;55.86;100854.14;104918;1271;99531;-79
2023/05/02 12:27:13;;;;;;;13.40;7.50;;;;;;;17.79;55.92;100852.54;104728;1271;98045;-77
2023/05/02 12:29:59;;;;;;;13.60;8.40;;;;;;;17.88;56.60;100848.20;104693;1271;98203;-78
2023/05/02 12:32:44;;;;;;;15.20;8.10;;;;;;;18.03;57.16;100850.02;104538;1271;101416;-79
2023/05/02 12:35:31;;;;;;;12.00;8.60;;;;;;;18.17;56.48;100851.06;104671;1268;99225;-80
2023/05/02 12:38:22;;;;;;;8.90;7.20;;;;;;;18.22;56.13;100848.98;104678;1268;98774;-78
2023/05/02 12:41:08;;;;;;;;;;;;;;;18.26;55.70;100853.41;104811;1271;97990;-78
2023/05/02 12:43:53;;;;;;;14.80;6.80;;;;;;;18.31;55.08;100852.64;104742;1271;98490;-79
2023/05/02 12:46:58;;;;;;;13.30;7.80;;;;;;;18.37;54.19;100854.52;104693;1268;101981;-79
2023/05/02 12:49:53;;;;;;;12.90;8.50;;;;;;;18.49;54.58;100859.48;104737;1271;99213;-80